Time;durP1;ratioP1;P1;durP2;ratioP2;P2;SDS_P1;SDS_P2;PMS_P1;PMS_P2;Temp;Humidity;BMP_temperature;BMP_pressure;BME280_temperature;BME280_humidity;BME280_pressure;Samples;Min_cycle;Max_cycle;Signal;HPM_P1;HPM_P2
2022/12/10 00:02:11;;;;;;;41.33;22.03;;;4.50;1.00;;;;;;5002055;28;20283;-54
2022/12/10 00:04:36;;;;;;;39.13;22.13;;;4.50;1.00;;;;;;4993897;28;20191;-53
2022/12/10 00:07:02;;;;;;;41.67;23.97;;;4.50;1.00;;;;;;4987793;28;20212;-53
2022/12/10 00:09:27;;;;;;;43.23;23.07;;;4.50;1.00;;;;;;4999626;28;20194;-55
2022/12/10 00:11:53;;;;;;;39.50;22.30;;;4.40;1.00;;;;;;4999883;28;20192;-53
2022/12/10 00:14:19;;;;;;;42.30;23.90;;;4.50;1.00;;;;;;4993519;28;20177;-51
2022/12/10 00:16:44;;;;;;;39.17;22.77;;;4.50;1.00;;;;;;4993040;28;20193;-51
2022/12/10 00:19:10;;;;;;;42.93;24.10;;;4.50;1.00;;;;;;5011524;28;20530;-53
2022/12/10 00:21:36;;;;;;;45.13;24.20;;;4.50;1.00;;;;;;5003602;28;20666;-53
2022/12/10 00:24:03;;;;;;;42.83;23.67;;;4.50;1.00;;;;;;5006786;28;20186;-52
2022/12/10 00:26:37;;;;;;;42.47;24.37;;;4.50;1.00;;;;;;4996256;28;20477;-54
2022/12/10 00:29:06;;;;;;;42.70;24.43;;;4.30;1.00;;;;;;5000470;28;20585;-51
2022/12/10 00:31:33;;;;;;;45.50;23.20;;;4.30;1.00;;;;;;5001474;28;20497;-51
2022/12/10 00:34:03;;;;;;;43.73;24.77;;;4.30;1.00;;;;;;5001623;28;21067;-52
2022/12/10 00:36:44;;;;;;;46.23;24.60;;;4.20;1.00;;;;;;5008296;28;20491;-52
2022/12/10 00:39:12;;;;;;;46.57;23.80;;;4.20;1.00;;;;;;4999919;28;20448;-53
2022/12/10 00:41:37;;;;;;;41.03;22.83;;;4.30;1.00;;;;;;4994194;28;20440;-51
2022/12/10 00:44:03;;;;;;;40.03;23.53;;;4.40;1.00;;;;;;4991904;28;20456;-53
2022/12/10 00:46:29;;;;;;;42.23;23.47;;;4.30;1.00;;;;;;4982191;28;20220;-54
2022/12/10 00:48:54;;;;;;;46.10;24.30;;;4.30;1.00;;;;;;4995747;28;20606;-52
2022/12/10 00:51:22;;;;;;;42.80;24.27;;;4.20;1.00;;;;;;4996705;28;20271;-54
2022/12/10 00:53:51;;;;;;;49.23;22.30;;;4.20;1.00;;;;;;4990846;28;20643;-54
2022/12/10 00:56:20;;;;;;;40.83;22.43;;;4.30;1.00;;;;;;4999638;28;20444;-54
2022/12/10 00:58:47;;;;;;;40.97;24.70;;;4.30;1.00;;;;;;4993146;28;20510;-51
2022/12/10 01:01:25;;;;;;;44.70;23.10;;;4.30;1.00;;;;;;5001298;28;20463;-54
2022/12/10 01:03:53;;;;;;;43.17;23.47;;;4.20;1.00;;;;;;5001859;28;20434;-53
2022/12/10 01:06:23;;;;;;;43.70;25.33;;;4.20;1.00;;;;;;4983623;28;20559;-51
2022/12/10 01:08:50;;;;;;;38.90;22.77;;;4.20;1.00;;;;;;4999477;28;20805;-54
2022/12/10 01:11:18;;;;;;;41.50;21.50;;;4.20;1.00;;;;;;4999270;28;20502;-52
2022/12/10 01:13:45;;;;;;;39.60;22.73;;;4.20;1.00;;;;;;4992536;28;20440;-54
2022/12/10 01:16:12;;;;;;;40.60;23.30;;;4.20;1.00;;;;;;4987807;28;20936;-55
2022/12/10 01:18:38;;;;;;;41.37;23.40;;;4.20;1.00;;;;;;4997017;28;20940;-54
2022/12/10 01:21:07;;;;;;;42.60;22.43;;;4.20;1.00;;;;;;5005587;28;20895;-53
2022/12/10 01:23:37;;;;;;;44.50;23.50;;;4.30;1.00;;;;;;4994043;28;20451;-53
2022/12/10 01:26:06;;;;;;;37.13;20.10;;;4.30;1.00;;;;;;4995558;28;20473;-54
2022/12/10 01:28:34;;;;;;;46.40;23.13;;;4.20;1.00;;;;;;4999587;28;20450;-54
2022/12/10 01:31:02;;;;;;;38.57;22.87;;;4.20;1.00;;;;;;4997204;28;20802;-54
2022/12/10 01:33:28;;;;;;;41.30;21.47;;;4.20;1.00;;;;;;5001609;28;20445;-53
2022/12/10 01:35:54;;;;;;;43.80;24.60;;;4.30;1.00;;;;;;5004644;28;20776;-54
2022/12/10 01:38:19;;;;;;;42.03;22.97;;;4.30;1.00;;;;;;5001532;28;20623;-54
2022/12/10 01:40:45;;;;;;;47.13;24.00;;;4.40;1.00;;;;;;5004469;28;20559;-52
2022/12/10 01:43:16;;;;;;;40.50;22.27;;;4.40;1.00;;;;;;4992045;28;20267;-54
2022/12/10 01:45:42;;;;;;;46.03;24.23;;;4.50;1.00;;;;;;4983324;28;20645;-54
2022/12/10 01:48:08;;;;;;;39.07;22.63;;;4.50;1.00;;;;;;4994704;28;20519;-54
2022/12/10 01:50:33;;;;;;;43.17;23.13;;;4.50;1.00;;;;;;4996627;28;20195;-51
2022/12/10 01:52:59;;;;;;;40.87;23.10;;;4.50;1.00;;;;;;4992357;28;20624;-53
2022/12/10 01:55:42;;;;;;;46.23;24.03;;;4.50;1.00;;;;;;4978435;28;20205;-54
2022/12/10 01:58:09;;;;;;;44.47;23.80;;;4.50;1.00;;;;;;5006880;28;20243;-52
2022/12/10 02:00:40;;;;;;;44.90;22.73;;;4.40;1.00;;;;;;4998208;28;20464;-52
2022/12/10 02:03:13;;;;;;;35.10;21.93;;;4.30;1.00;;;;;;4999249;28;21025;-54
2022/12/10 02:05:57;;;;;;;36.43;20.33;;;4.40;1.00;;;;;;5005669;28;20854;-52
2022/12/10 02:08:35;;;;;;;39.27;21.50;;;4.40;1.00;;;;;;5004923;28;20475;-53
2022/12/10 02:11:04;;;;;;;42.00;22.10;;;4.50;1.00;;;;;;4992462;28;20987;-52
2022/12/10 02:13:43;;;;;;;40.23;23.90;;;4.40;1.00;;;;;;5001772;28;20446;-52
2022/12/10 02:16:31;;;;;;;39.87;21.20;;;4.40;1.00;;;;;;4999112;28;20479;-54
2022/12/10 02:19:06;;;;;;;33.20;19.60;;;4.50;1.00;;;;;;4995793;28;20448;-52
2022/12/10 02:21:38;;;;;;;40.40;20.60;;;4.50;1.00;;;;;;5002770;28;20451;-52
2022/12/10 02:24:07;;;;;;;34.00;19.67;;;4.50;1.00;;;;;;5009938;28;20434;-50
2022/12/10 02:26:33;;;;;;;35.30;18.70;;;4.50;1.00;;;;;;4995277;28;20469;-50
2022/12/10 02:29:17;;;;;;;36.87;19.40;;;4.50;1.00;;;;;;5001157;28;20453;-52
2022/12/10 02:31:52;;;;;;;34.23;18.93;;;4.50;1.00;;;;;;4984045;28;20192;-53
2022/12/10 02:34:19;;;;;;;32.33;18.40;;;4.50;1.00;;;;;;4999321;28;20800;-54
2022/12/10 02:36:48;;;;;;;33.70;18.07;;;4.50;1.00;;;;;;4998178;28;20463;-52
2022/12/10 02:39:19;;;;;;;37.93;20.80;;;4.50;1.00;;;;;;4999351;28;20475;-53
2022/12/10 02:41:51;;;;;;;36.90;21.20;;;4.50;1.00;;;;;;5004450;28;20446;-53
2022/12/10 02:44:18;;;;;;;35.73;22.40;;;4.60;1.00;;;;;;5004362;28;20448;-52
2022/12/10 02:46:46;;;;;;;35.00;18.80;;;4.60;1.00;;;;;;5004657;28;20482;-52
2022/12/10 02:49:14;;;;;;;30.90;20.20;;;4.60;1.00;;;;;;5000355;28;21012;-53
2022/12/10 02:51:41;;;;;;;34.60;18.43;;;4.60;1.00;;;;;;4995129;28;20857;-53
2022/12/10 02:54:27;;;;;;;29.50;16.90;;;4.60;1.00;;;;;;5013403;28;20454;-53
2022/12/10 02:57:00;;;;;;;33.57;17.90;;;4.60;1.00;;;;;;5000837;28;20426;-53
2022/12/10 02:59:33;;;;;;;31.73;16.63;;;4.60;1.00;;;;;;4994235;28;20459;-55
2022/12/10 03:02:34;;;;;;;28.30;16.57;;;4.60;1.00;;;;;;5003413;28;20919;-51
2022/12/10 03:05:30;;;;;;;28.10;16.87;;;4.60;1.00;;;;;;4996739;28;20443;-51
2022/12/10 03:08:07;;;;;;;31.17;18.70;;;4.40;1.00;;;;;;4996111;28;20435;-56
2022/12/10 03:10:38;;;;;;;31.57;18.20;;;4.40;1.00;;;;;;5001227;28;20929;-51
2022/12/10 03:13:09;;;;;;;34.20;17.43;;;4.50;1.00;;;;;;4996468;28;20455;-53
2022/12/10 03:15:39;;;;;;;32.97;18.10;;;4.50;1.00;;;;;;5002273;28;20419;-55
2022/12/10 03:18:07;;;;;;;29.47;17.43;;;4.40;1.00;;;;;;4991625;28;20419;-53
2022/12/10 03:20:36;;;;;;;33.07;17.77;;;4.50;1.00;;;;;;4987151;28;20859;-53
2022/12/10 03:23:03;;;;;;;38.20;21.17;;;4.50;1.00;;;;;;5009373;28;20447;-53
2022/12/10 03:25:31;;;;;;;34.70;19.57;;;4.50;1.00;;;;;;5010322;28;20901;-55
2022/12/10 03:28:00;;;;;;;32.23;18.80;;;4.50;1.00;;;;;;4999375;28;20440;-54
2022/12/10 03:30:26;;;;;;;36.13;20.33;;;4.40;1.00;;;;;;4991239;28;20533;-55
2022/12/10 03:32:53;;;;;;;43.07;20.93;;;4.40;1.00;;;;;;5013758;28;20445;-52
2022/12/10 03:35:21;;;;;;;40.50;21.90;;;4.30;1.00;;;;;;4996234;28;20962;-51
2022/12/10 03:37:49;;;;;;;36.30;20.10;;;4.30;1.00;;;;;;4997965;28;20447;-55
2022/12/10 03:40:16;;;;;;;36.10;21.30;;;4.20;1.00;;;;;;5008157;28;20816;-54
2022/12/10 03:42:41;;;;;;;33.37;19.90;;;4.20;1.00;;;;;;5000842;28;20527;-52
2022/12/10 03:45:07;;;;;;;40.77;20.77;;;4.20;1.00;;;;;;5001901;28;20972;-54
2022/12/10 03:47:33;;;;;;;34.07;19.07;;;4.20;1.00;;;;;;5002894;28;20231;-53
2022/12/10 03:49:58;;;;;;;36.47;20.57;;;4.30;1.00;;;;;;5000751;28;20772;-55
2022/12/10 03:52:24;;;;;;;35.07;19.97;;;4.30;1.00;;;;;;5006163;28;20230;-54
2022/12/10 03:54:50;;;;;;;38.33;20.23;;;4.30;1.00;;;;;;5000378;28;20177;-54
2022/12/10 03:57:15;;;;;;;34.07;20.23;;;4.30;1.00;;;;;;4993699;28;20710;-51
2022/12/10 03:59:41;;;;;;;35.80;21.03;;;4.30;1.00;;;;;;4998747;28;20512;-53
2022/12/10 04:02:06;;;;;;;32.23;19.37;;;4.20;1.00;;;;;;4998975;28;20224;-50
2022/12/10 04:04:32;;;;;;;34.47;20.50;;;4.50;1.00;;;;;;5007733;28;20195;-54
2022/12/10 04:06:57;;;;;;;33.53;17.90;;;4.30;1.00;;;;;;4988693;28;20225;-56
2022/12/10 04:09:23;;;;;;;34.50;18.47;;;4.40;1.00;;;;;;5011899;28;20192;-55
2022/12/10 04:11:49;;;;;;;33.63;19.40;;;4.40;1.00;;;;;;4997763;28;20638;-53
2022/12/10 04:16:59;;;;;;;34.73;18.80;;;4.40;1.00;;;;;;4993275;28;20195;-52
2022/12/10 04:19:25;;;;;;;31.50;18.30;;;4.40;1.00;;;;;;4999035;28;20453;-52
2022/12/10 04:27:27;;;;;;;38.20;16.87;;;4.70;1.00;;;;;;4999847;28;20481;-54
2022/12/10 04:29:54;;;;;;;31.00;17.60;;;4.70;1.00;;;;;;5002540;28;20956;-53
2022/12/10 04:32:21;;;;;;;28.50;16.80;;;4.70;1.00;;;;;;5003292;28;20452;-53
2022/12/10 04:34:46;;;;;;;31.70;18.03;;;4.70;1.00;;;;;;4993764;28;20446;-54
2022/12/10 04:37:15;;;;;;;29.80;16.87;;;4.70;1.00;;;;;;4994592;28;20952;-53
2022/12/10 04:39:40;;;;;;;30.07;17.57;;;4.60;1.00;;;;;;4992741;28;20221;-53
2022/12/10 04:42:07;;;;;;;30.63;15.83;;;4.60;1.00;;;;;;4979514;28;20503;-52
2022/12/10 04:44:33;;;;;;;32.70;17.30;;;4.60;1.00;;;;;;5010613;28;20188;-53
2022/12/10 04:46:59;;;;;;;27.53;15.87;;;4.50;1.00;;;;;;5011716;28;20544;-52
2022/12/10 04:49:24;;;;;;;30.83;18.73;;;4.50;1.00;;;;;;4994336;28;20530;-52
2022/12/10 04:51:50;;;;;;;29.30;17.10;;;4.60;1.00;;;;;;4999029;28;20655;-54
2022/12/10 04:54:16;;;;;;;30.73;17.33;;;4.70;1.00;;;;;;4998212;28;20185;-53
2022/12/10 04:56:42;;;;;;;35.53;18.43;;;4.80;1.00;;;;;;5003948;28;20455;-54
2022/12/10 04:59:08;;;;;;;30.80;18.23;;;4.90;1.00;;;;;;5000134;28;20229;-50
2022/12/10 05:01:34;;;;;;;29.93;17.17;;;5.00;1.00;;;;;;4997313;28;20427;-53
2022/12/10 05:04:02;;;;;;;27.57;16.50;;;4.90;1.00;;;;;;5000114;28;20786;-54
2022/12/10 05:06:27;;;;;;;32.37;17.30;;;4.70;1.00;;;;;;4992905;28;20467;-52
2022/12/10 05:08:53;;;;;;;30.40;18.53;;;4.60;1.00;;;;;;5006268;28;20440;-54
2022/12/10 05:11:21;;;;;;;36.40;18.83;;;4.50;1.00;;;;;;4998011;28;20473;-54
2022/12/10 05:13:47;;;;;;;32.13;18.40;;;4.50;1.00;;;;;;4993240;28;20197;-56
2022/12/10 05:16:17;;;;;;;35.83;18.73;;;5.10;1.00;;;;;;5006786;28;20589;-54
2022/12/10 05:18:43;;;;;;;30.53;16.70;;;4.50;1.00;;;;;;5003505;28;20251;-50
2022/12/10 05:21:14;;;;;;;33.03;19.03;;;4.30;1.00;;;;;;5013221;28;20821;-53
2022/12/10 05:23:43;;;;;;;32.23;18.53;;;4.40;1.00;;;;;;5004688;28;20448;-53
2022/12/10 05:26:13;;;;;;;34.20;17.57;;;4.40;1.00;;;;;;5002959;28;20770;-53
2022/12/10 05:28:53;;;;;;;32.63;18.10;;;4.30;1.00;;;;;;5005949;28;20439;-54
2022/12/10 05:31:22;;;;;;;35.03;17.87;;;4.20;1.00;;;;;;4996140;28;20450;-52
2022/12/10 05:33:48;;;;;;;36.27;18.30;;;4.00;1.00;;;;;;4992070;28;20425;-54
2022/12/10 05:36:15;;;;;;;31.93;16.97;;;4.10;1.00;;;;;;4977200;28;20456;-52
2022/12/10 05:38:41;;;;;;;36.90;18.37;;;4.10;1.00;;;;;;4988313;28;20202;-51
2022/12/10 05:41:10;;;;;;;30.57;18.20;;;4.10;1.00;;;;;;5007805;28;21007;-51
2022/12/10 05:43:36;;;;;;;33.33;18.67;;;4.00;1.00;;;;;;5004754;28;20792;-55
2022/12/10 05:46:03;;;;;;;31.60;17.57;;;4.00;1.00;;;;;;4987445;28;20472;-50
2022/12/10 05:48:30;;;;;;;32.97;19.33;;;4.20;1.00;;;;;;4989284;28;20225;-52
2022/12/10 05:50:56;;;;;;;36.63;18.40;;;4.10;1.00;;;;;;5003224;28;20526;-55
2022/12/10 05:53:22;;;;;;;32.80;17.97;;;4.10;1.00;;;;;;5010181;28;20439;-54
2022/12/10 05:55:48;;;;;;;35.27;17.40;;;4.10;1.00;;;;;;5007636;28;21029;-53
2022/12/10 05:58:14;;;;;;;32.60;17.73;;;4.20;1.00;;;;;;5002865;28;20422;-53
2022/12/10 06:00:40;;;;;;;35.20;19.70;;;4.00;1.00;;;;;;4983032;28;20196;-52
2022/12/10 06:03:06;;;;;;;32.10;17.23;;;4.00;1.00;;;;;;5003644;28;20197;-53
2022/12/10 06:05:40;;;;;;;36.00;18.90;;;4.10;1.00;;;;;;5001687;28;20449;-52
2022/12/10 06:08:07;;;;;;;34.33;19.50;;;4.10;1.00;;;;;;5003169;28;20443;-52
2022/12/10 06:10:36;;;;;;;27.80;16.37;;;4.00;1.00;;;;;;5007239;28;20528;-52
2022/12/10 06:13:02;;;;;;;37.77;17.70;;;4.00;1.00;;;;;;5007239;28;20925;-51
2022/12/10 06:15:28;;;;;;;34.57;17.70;;;3.90;1.00;;;;;;4998439;28;20545;-52
2022/12/10 06:17:55;;;;;;;34.40;18.57;;;4.00;1.00;;;;;;5005660;28;20525;-52
2022/12/10 06:20:21;;;;;;;35.07;19.70;;;3.90;1.00;;;;;;5000898;28;20444;-56
2022/12/10 06:22:47;;;;;;;34.33;18.57;;;3.90;1.00;;;;;;5005259;28;20431;-53
2022/12/10 06:25:13;;;;;;;34.40;17.63;;;3.80;1.00;;;;;;4993067;28;20536;-53
2022/12/10 06:27:38;;;;;;;33.87;19.33;;;3.80;1.00;;;;;;5013878;28;20216;-52
2022/12/10 06:30:04;;;;;;;36.20;19.03;;;3.90;1.00;;;;;;5005794;28;20503;-54
2022/12/10 06:32:30;;;;;;;38.13;18.73;;;3.90;1.00;;;;;;4999317;28;20185;-55
2022/12/10 06:34:56;;;;;;;32.90;18.67;;;3.90;1.00;;;;;;5013487;28;20453;-53
2022/12/10 06:37:21;;;;;;;35.40;19.30;;;4.00;1.00;;;;;;5004867;28;20196;-53
2022/12/10 06:39:47;;;;;;;31.93;16.40;;;4.00;1.00;;;;;;4990969;28;20198;-53
2022/12/10 06:42:12;;;;;;;34.40;18.73;;;4.10;1.00;;;;;;4975668;28;20639;-53
2022/12/10 06:44:38;;;;;;;33.40;17.10;;;4.10;1.00;;;;;;4994070;28;20192;-55
2022/12/10 06:47:04;;;;;;;33.70;18.03;;;4.10;1.00;;;;;;4957680;28;1095005;-55
2022/12/10 06:49:29;;;;;;;34.63;18.13;;;4.10;1.00;;;;;;4994685;28;20540;-54
2022/12/10 06:51:55;;;;;;;32.50;18.00;;;4.10;1.00;;;;;;5005931;28;20240;-54
2022/12/10 06:54:20;;;;;;;34.07;18.93;;;4.10;1.00;;;;;;4995111;28;20603;-54
2022/12/10 06:56:46;;;;;;;38.10;18.47;;;4.10;1.00;;;;;;4994684;28;20188;-54
2022/12/10 06:59:12;;;;;;;36.30;20.07;;;4.20;1.00;;;;;;4996076;28;20207;-53
2022/12/10 07:01:38;;;;;;;36.60;19.73;;;4.20;1.00;;;;;;5002791;28;20189;-54
2022/12/10 07:04:04;;;;;;;37.50;20.83;;;4.10;1.00;;;;;;4997703;28;20205;-55
2022/12/10 07:06:31;;;;;;;37.30;18.93;;;4.10;1.00;;;;;;5001694;28;20482;-53
2022/12/10 07:08:57;;;;;;;37.43;18.60;;;4.00;1.00;;;;;;4999143;28;20186;-54
2022/12/10 07:11:24;;;;;;;35.60;20.50;;;4.10;1.00;;;;;;4999747;28;20517;-55
2022/12/10 07:13:50;;;;;;;31.63;18.60;;;4.10;1.00;;;;;;4992019;28;20502;-53
2022/12/10 07:16:22;;;;;;;35.90;19.00;;;4.20;1.00;;;;;;4978632;28;20439;-51
2022/12/10 07:18:48;;;;;;;35.97;19.60;;;4.20;1.00;;;;;;4997553;28;20439;-55
2022/12/10 07:21:24;;;;;;;31.83;18.53;;;4.20;1.00;;;;;;4999467;28;20479;-53
2022/12/10 07:23:51;;;;;;;37.20;20.03;;;4.10;1.00;;;;;;4994452;28;20843;-55
2022/12/10 07:26:17;;;;;;;39.47;21.73;;;4.10;1.00;;;;;;4987688;28;20526;-51
2022/12/10 07:28:42;;;;;;;34.07;19.37;;;3.90;1.00;;;;;;4991137;28;20535;-55
2022/12/10 07:31:09;;;;;;;32.63;18.47;;;3.90;1.00;;;;;;4995268;28;20453;-54
2022/12/10 07:33:36;;;;;;;37.97;20.03;;;3.90;1.00;;;;;;5006300;28;20680;-52
2022/12/10 07:36:09;;;;;;;36.73;20.37;;;3.90;1.00;;;;;;5005259;28;20453;-52
2022/12/10 07:38:36;;;;;;;35.27;18.77;;;3.90;1.00;;;;;;5000948;28;20590;-51
2022/12/10 07:41:06;;;;;;;39.77;19.13;;;3.90;1.00;;;;;;5008589;28;20467;-53
2022/12/10 07:43:36;;;;;;;35.53;20.20;;;3.90;1.00;;;;;;4995025;28;20460;-54
2022/12/10 07:46:15;;;;;;;42.00;19.93;;;3.90;1.00;;;;;;4994149;28;20495;-52
2022/12/10 07:48:42;;;;;;;41.37;22.97;;;4.00;1.00;;;;;;4995537;28;20875;-52
2022/12/10 07:51:08;;;;;;;36.23;18.60;;;4.00;1.00;;;;;;5005601;28;20493;-54
2022/12/10 07:53:34;;;;;;;45.43;22.20;;;4.00;1.00;;;;;;4992113;28;20949;-53
2022/12/10 07:56:01;;;;;;;39.17;20.80;;;3.90;1.00;;;;;;4993295;28;20469;-51
2022/12/10 07:58:26;;;;;;;38.47;22.07;;;3.70;1.00;;;;;;4997955;28;20482;-52
2022/12/10 08:00:52;;;;;;;39.70;20.70;;;3.70;1.00;;;;;;4989382;28;21014;-55
2022/12/10 08:03:18;;;;;;;42.33;21.10;;;3.70;1.00;;;;;;5005463;28;20524;-54
2022/12/10 08:05:43;;;;;;;39.53;21.43;;;3.60;1.00;;;;;;5006252;28;20578;-51
2022/12/10 08:08:09;;;;;;;42.67;21.03;;;3.50;1.00;;;;;;4987363;28;20222;-54
2022/12/10 08:10:36;;;;;;;35.20;18.30;;;3.50;1.00;;;;;;4978536;28;20189;-55
2022/12/10 08:13:01;;;;;;;37.73;19.03;;;3.60;1.00;;;;;;4998420;28;20182;-54
2022/12/10 08:15:28;;;;;;;39.90;20.70;;;3.70;1.00;;;;;;4999876;28;20534;-51
2022/12/10 08:17:54;;;;;;;40.97;21.50;;;3.70;1.00;;;;;;4997826;28;20604;-55
2022/12/10 08:20:20;;;;;;;33.13;19.00;;;3.60;1.00;;;;;;4993199;28;20446;-56
2022/12/10 08:22:46;;;;;;;42.43;23.77;;;3.70;1.00;;;;;;4992704;28;20450;-55
2022/12/10 08:25:11;;;;;;;37.13;20.03;;;3.70;1.00;;;;;;4995387;28;20535;-55
2022/12/10 08:27:37;;;;;;;37.97;19.13;;;3.70;1.00;;;;;;4994431;28;20216;-53
2022/12/10 08:30:03;;;;;;;46.07;22.23;;;3.70;1.00;;;;;;5002971;28;20195;-55
2022/12/10 08:32:29;;;;;;;37.77;19.73;;;3.70;1.00;;;;;;4993984;28;20195;-53
2022/12/10 08:34:55;;;;;;;36.03;20.63;;;3.70;1.00;;;;;;4993010;28;20436;-54
2022/12/10 08:37:20;;;;;;;41.80;20.27;;;3.70;1.00;;;;;;5000692;28;20966;-54
2022/12/10 08:39:46;;;;;;;49.37;24.50;;;3.70;1.00;;;;;;5001169;28;20246;-54
2022/12/10 08:42:12;;;;;;;43.37;22.90;;;3.70;1.00;;;;;;4999068;28;20209;-56
2022/12/10 08:44:37;;;;;;;43.90;25.93;;;3.80;1.00;;;;;;4999791;28;20191;-53
2022/12/10 08:47:03;;;;;;;45.53;23.30;;;3.80;1.00;;;;;;4997709;28;20226;-54
2022/12/10 08:49:29;;;;;;;41.80;24.27;;;3.90;1.00;;;;;;4996543;28;20216;-54
2022/12/10 08:51:54;;;;;;;56.20;33.27;;;3.90;1.00;;;;;;4985373;28;20608;-55
2022/12/10 08:54:20;;;;;;;47.57;27.80;;;3.90;1.00;;;;;;5000984;28;20189;-55
2022/12/10 08:56:45;;;;;;;40.40;25.27;;;3.80;1.00;;;;;;4995140;28;20279;-55
2022/12/10 08:59:11;;;;;;;43.03;21.57;;;3.70;1.00;;;;;;4996578;28;20278;-56
2022/12/10 09:01:37;;;;;;;39.80;22.30;;;3.70;1.00;;;;;;4998929;28;20222;-55
2022/12/10 09:04:02;;;;;;;45.40;23.43;;;3.80;1.00;;;;;;4994842;28;20276;-55
2022/12/10 09:06:28;;;;;;;45.23;23.23;;;3.80;1.00;;;;;;5004960;28;20206;-52
2022/12/10 09:08:54;;;;;;;36.50;21.80;;;3.70;1.00;;;;;;5003154;28;20582;-54
2022/12/10 09:11:30;;;;;;;38.83;21.23;;;3.70;1.00;;;;;;4984912;28;20202;-52
2022/12/10 09:13:56;;;;;;;47.87;26.70;;;3.80;1.00;;;;;;4995623;28;20198;-54
2022/12/10 09:16:34;;;;;;;37.77;22.47;;;3.70;1.00;;;;;;5001706;28;20478;-53
2022/12/10 09:19:01;;;;;;;45.63;23.83;;;3.70;1.00;;;;;;4998547;28;20770;-52
2022/12/10 09:21:27;;;;;;;35.03;21.40;;;3.70;1.00;;;;;;5007400;28;20438;-55
2022/12/10 09:23:53;;;;;;;37.33;21.30;;;3.80;1.00;;;;;;4995532;28;20549;-55
2022/12/10 09:26:20;;;;;;;39.23;21.00;;;3.80;1.00;;;;;;4998161;28;20561;-54
2022/12/10 09:28:46;;;;;;;41.40;22.00;;;3.70;1.00;;;;;;5004618;28;20203;-52
2022/12/10 09:31:13;;;;;;;43.17;22.30;;;3.70;1.00;;;;;;5006983;28;20486;-53
2022/12/10 09:33:39;;;;;;;37.30;22.40;;;3.60;1.00;;;;;;4995198;28;20438;-54
2022/12/10 09:36:07;;;;;;;39.93;21.07;;;3.60;1.00;;;;;;4990116;28;20463;-54
2022/12/10 09:38:38;;;;;;;34.57;20.47;;;3.60;1.00;;;;;;4997484;28;20427;-51
2022/12/10 09:41:07;;;;;;;40.87;21.93;;;3.50;1.00;;;;;;4994058;28;20443;-55
2022/12/10 09:43:35;;;;;;;36.37;19.50;;;3.60;1.00;;;;;;5008906;28;20439;-55
2022/12/10 09:46:19;;;;;;;41.33;22.10;;;3.80;1.00;;;;;;5001783;28;20466;-53
2022/12/10 09:48:50;;;;;;;38.80;19.77;;;3.80;1.00;;;;;;5004418;28;20468;-54
2022/12/10 09:51:23;;;;;;;36.57;21.03;;;3.70;1.00;;;;;;5009935;28;20454;-53
2022/12/10 09:53:57;;;;;;;34.27;18.33;;;3.70;1.00;;;;;;5004330;28;20440;-53
2022/12/10 09:56:35;;;;;;;38.00;22.80;;;3.60;1.00;;;;;;5006270;28;20442;-50
2022/12/10 09:59:19;;;;;;;39.73;21.60;;;3.60;1.00;;;;;;4995609;28;20429;-55
2022/12/10 10:01:50;;;;;;;38.47;19.60;;;3.60;1.00;;;;;;5003746;28;20796;-56
2022/12/10 10:04:16;;;;;;;50.03;23.03;;;3.70;1.00;;;;;;4993658;28;20450;-52
2022/12/10 10:06:42;;;;;;;43.17;21.00;;;3.60;1.00;;;;;;4998504;28;20488;-54
2022/12/10 10:09:13;;;;;;;45.57;24.10;;;3.60;1.00;;;;;;5006305;28;20196;-54
2022/12/10 10:11:39;;;;;;;40.53;21.90;;;3.80;1.00;;;;;;4988734;28;20444;-53
2022/12/10 10:14:17;;;;;;;38.73;21.57;;;3.80;1.00;;;;;;5002017;28;20460;-55
2022/12/10 10:16:50;;;;;;;43.87;23.13;;;3.70;1.00;;;;;;5002291;28;20449;-54
2022/12/10 10:19:21;;;;;;;37.50;21.00;;;3.60;1.00;;;;;;5009103;28;20767;-53
2022/12/10 10:21:48;;;;;;;41.57;20.67;;;3.70;1.00;;;;;;4999934;28;21068;-55
2022/12/10 10:24:24;;;;;;;38.00;20.80;;;3.60;1.00;;;;;;4998471;28;20485;-56
2022/12/10 10:26:55;;;;;;;37.90;20.20;;;3.70;1.00;;;;;;5004690;28;20901;-55
2022/12/10 10:29:24;;;;;;;33.00;19.53;;;3.60;1.00;;;;;;5010585;28;20434;-53
2022/12/10 10:32:20;;;;;;;37.50;21.37;;;3.80;1.00;;;;;;4997522;28;20445;-52
2022/12/10 10:34:52;;;;;;;35.53;19.33;;;3.70;1.00;;;;;;4987634;28;20528;-51
2022/12/10 10:37:35;;;;;;;32.70;19.50;;;3.90;1.00;;;;;;4999246;28;20833;-53
2022/12/10 10:40:01;;;;;;;33.83;21.07;;;4.00;1.00;;;;;;5006394;28;20438;-52
2022/12/10 10:42:42;;;;;;;32.97;20.10;;;4.00;1.00;;;;;;5003361;28;20460;-53
2022/12/10 10:45:33;;;;;;;35.90;21.37;;;4.20;1.00;;;;;;5004429;28;20465;-54
2022/12/10 10:48:17;;;;;;;33.17;22.43;;;4.40;1.00;;;;;;4947080;28;20485;-53
2022/12/10 10:50:54;;;;;;;32.83;20.30;;;4.60;1.00;;;;;;4979769;28;20958;-54
2022/12/10 10:53:25;;;;;;;30.37;19.93;;;4.60;1.00;;;;;;4977020;28;21028;-56
2022/12/10 10:55:54;;;;;;;38.20;23.13;;;4.60;1.00;;;;;;4977843;28;20946;-56
2022/12/10 10:58:21;;;;;;;35.23;20.80;;;4.50;1.00;;;;;;4985729;28;20436;-57
2022/12/10 11:00:55;;;;;;;38.73;23.23;;;4.40;1.00;;;;;;4981386;28;20448;-55
2022/12/10 11:03:21;;;;;;;30.90;20.10;;;4.40;1.00;;;;;;4980272;28;20937;-56
2022/12/10 11:05:48;;;;;;;36.00;22.40;;;4.30;1.00;;;;;;4994309;28;20526;-56
2022/12/10 11:08:22;;;;;;;33.90;22.83;;;4.30;1.00;;;;;;4981439;28;20197;-56
2022/12/10 11:10:50;;;;;;;31.83;21.00;;;4.40;1.00;;;;;;4981697;28;20924;-56
2022/12/10 11:13:28;;;;;;;32.27;18.57;;;4.30;1.00;;;;;;4991222;28;20515;-56
2022/12/10 11:16:22;;;;;;;27.57;17.93;;;4.20;1.00;;;;;;4974189;28;20806;-57
2022/12/10 11:19:01;;;;;;;29.50;17.63;;;4.20;1.00;;;;;;4984732;28;20528;-55
2022/12/10 11:21:29;;;;;;;31.37;17.90;;;4.10;1.00;;;;;;4980012;28;20437;-56
2022/12/10 11:23:56;;;;;;;28.97;19.30;;;4.10;1.00;;;;;;4980157;28;20904;-55
2022/12/10 11:27:13;;;;;;;25.93;17.83;;;4.10;1.00;;;;;;4976056;28;20466;-56
2022/12/10 11:29:55;;;;;;;27.40;18.00;;;4.20;1.00;;;;;;4946489;28;20455;-56
2022/12/10 11:32:57;;;;;;;32.10;19.17;;;4.30;1.00;;;;;;4983937;28;20404;-57
2022/12/10 11:35:34;;;;;;;31.57;18.07;;;4.30;1.00;;;;;;4973298;28;20449;-55
2022/12/10 11:38:18;;;;;;;28.07;18.23;;;4.30;1.00;;;;;;4976753;28;20842;-54
2022/12/10 11:40:55;;;;;;;28.50;18.00;;;4.20;1.00;;;;;;4975301;28;20741;-56
2022/12/10 11:43:32;;;;;;;25.03;16.70;;;4.30;1.00;;;;;;4988645;28;20515;-56
2022/12/10 11:46:08;;;;;;;28.37;19.00;;;4.30;1.00;;;;;;4983318;28;20455;-55
2022/12/10 11:48:58;;;;;;;25.37;16.10;;;4.30;1.00;;;;;;4989184;28;20500;-57
2022/12/10 11:51:37;;;;;;;25.40;17.93;;;4.40;1.00;;;;;;5003176;28;20431;-57
2022/12/10 11:54:45;;;;;;;24.60;16.17;;;4.40;1.00;;;;;;4977121;28;20406;-56
2022/12/10 11:57:37;;;;;;;31.60;18.30;;;4.40;1.00;;;;;;4991166;28;20495;-55
2022/12/10 12:00:20;;;;;;;25.80;17.87;;;4.50;1.00;;;;;;5003465;28;20455;-56
2022/12/10 12:03:14;;;;;;;25.83;16.17;;;4.60;1.00;;;;;;5002694;28;20436;-56
2022/12/10 12:05:48;;;;;;;23.17;15.07;;;4.40;1.00;;;;;;4997966;28;20524;-56
2022/12/10 12:08:31;;;;;;;24.10;16.30;;;4.50;1.00;;;;;;4997133;28;20444;-57
2022/12/10 12:11:07;;;;;;;28.27;18.47;;;4.50;1.00;;;;;;4996421;28;20904;-55
2022/12/10 12:14:20;;;;;;;26.63;16.63;;;4.60;1.00;;;;;;5000624;28;20940;-56
2022/12/10 12:17:30;;;;;;;26.50;16.93;;;4.50;1.00;;;;;;4935616;28;20443;-57
2022/12/10 12:20:03;;;;;;;26.97;16.53;;;4.40;1.00;;;;;;4993864;28;20482;-58
2022/12/10 12:22:41;;;;;;;31.00;18.83;;;4.40;1.00;;;;;;4993354;28;20440;-55
2022/12/10 12:25:29;;;;;;;31.60;21.77;;;4.10;1.00;;;;;;5002522;28;20454;-56
2022/12/10 12:28:17;;;;;;;31.80;19.37;;;4.20;1.00;;;;;;4997536;28;20464;-56
2022/12/10 12:30:46;;;;;;;27.70;17.80;;;4.30;1.00;;;;;;5004055;28;20445;-54
2022/12/10 12:33:18;;;;;;;27.10;19.60;;;4.40;1.00;;;;;;5000061;28;20559;-57
2022/12/10 12:35:52;;;;;;;21.73;16.03;;;4.50;1.00;;;;;;5004639;28;20426;-55
2022/12/10 12:38:29;;;;;;;28.30;17.03;;;4.70;1.00;;;;;;5008232;28;20512;-57
2022/12/10 12:41:12;;;;;;;22.60;15.27;;;4.70;1.00;;;;;;4994542;28;20909;-56
2022/12/10 12:44:13;;;;;;;27.87;16.53;;;4.60;1.00;;;;;;4995600;28;20458;-55
2022/12/10 12:46:45;;;;;;;24.20;15.23;;;4.60;1.00;;;;;;4989549;28;20974;-55
2022/12/10 12:49:25;;;;;;;25.60;16.50;;;4.50;1.00;;;;;;4996158;28;20543;-58
2022/12/10 12:51:54;;;;;;;25.70;16.70;;;4.40;1.00;;;;;;5005215;28;20405;-57
2022/12/10 12:54:19;;;;;;;28.57;16.93;;;4.50;1.00;;;;;;5004306;28;20452;-55
2022/12/10 12:56:48;;;;;;;29.10;19.03;;;4.40;1.00;;;;;;5006225;28;20425;-55
2022/12/10 12:59:53;;;;;;;29.30;17.03;;;4.40;1.00;;;;;;4993230;28;20193;-55
2022/12/10 13:02:31;;;;;;;21.10;15.10;;;4.40;1.00;;;;;;4998545;28;20864;-57
2022/12/10 13:04:59;;;;;;;25.47;15.50;;;4.60;1.00;;;;;;5002839;28;20478;-55
2022/12/10 13:07:25;;;;;;;26.23;15.10;;;4.60;1.00;;;;;;5007558;28;20553;-55
2022/12/10 13:10:09;;;;;;;24.63;17.00;;;4.60;1.00;;;;;;4999363;28;20451;-56
2022/12/10 13:12:41;;;;;;;27.40;15.13;;;4.40;1.00;;;;;;4993741;28;20268;-57
2022/12/10 13:15:34;;;;;;;23.90;13.80;;;4.30;1.00;;;;;;4994477;28;20973;-55